Time;durP1;ratioP1;P1;durP2;ratioP2;P2;SDS_P1;SDS_P2;PMS_P1;PMS_P2;Temp;Humidity;BMP_temperature;BMP_pressure;BME280_temperature;BME280_humidity;BME280_pressure;Samples;Min_cycle;Max_cycle;Signal;HPM_P1;HPM_P2
2023/04/04 00:01:15;;;;;;;6.68;1.85;;;;;;;0.64;79.67;102636.53;5059255;28;20044;-75
2023/04/04 00:03:41;;;;;;;4.20;1.95;;;;;;;0.62;79.83;102639.97;5060740;28;20032;-74
2023/04/04 00:06:06;;;;;;;6.53;2.17;;;;;;;0.58;80.17;102631.59;5061907;28;20121;-74
2023/04/04 00:08:32;;;;;;;6.38;1.85;;;;;;;0.53;79.74;102636.84;5059204;28;20044;-75
2023/04/04 00:10:58;;;;;;;9.32;2.15;;;;;;;0.48;79.95;102636.13;5055498;28;20041;-75
2023/04/04 00:13:25;;;;;;;8.18;2.05;;;;;;;0.47;80.29;102636.16;5059850;28;20043;-75
2023/04/04 00:15:51;;;;;;;7.10;2.78;;;;;;;0.44;80.26;102632.00;5056287;28;20048;-75
2023/04/04 00:18:17;;;;;;;10.30;2.33;;;;;;;0.42;80.18;102635.50;5061399;28;20033;-75
2023/04/04 00:20:42;;;;;;;5.90;1.88;;;;;;;0.39;80.85;102631.28;5058351;28;20040;-75
2023/04/04 00:23:09;;;;;;;7.68;2.05;;;;;;;0.37;81.29;102639.00;5057325;28;20029;-76
2023/04/04 00:25:36;;;;;;;4.18;1.83;;;;;;;0.36;81.31;102637.34;5055574;28;20035;-75
2023/04/04 00:28:02;;;;;;;6.97;1.75;;;;;;;0.35;81.51;102633.09;5062446;28;20139;-75
2023/04/04 00:30:28;;;;;;;5.32;2.40;;;;;;;0.33;81.48;102639.16;5038967;28;20032;-75
2023/04/04 00:32:55;;;;;;;4.22;2.03;;;;;;;0.30;81.80;102640.06;5057479;28;20618;-75
2023/04/04 00:35:20;;;;;;;7.60;3.08;;;;;;;0.27;81.87;102631.66;5060001;28;20307;-75
2023/04/04 00:37:46;;;;;;;4.63;2.17;;;;;;;0.23;81.93;102646.22;5062935;28;20036;-75
2023/04/04 00:40:11;;;;;;;4.72;2.00;;;;;;;0.20;82.12;102636.09;5061938;28;20025;-75
2023/04/04 00:42:37;;;;;;;5.03;2.10;;;;;;;0.16;82.05;102635.34;5046962;28;20036;-74
2023/04/04 00:45:07;;;;;;;6.13;2.58;;;;;;;0.14;82.14;102631.19;5058229;28;20026;-75
2023/04/04 00:47:33;;;;;;;5.15;2.40;;;;;;;0.09;82.73;102633.03;5056720;28;20049;-75
2023/04/04 00:49:59;;;;;;;5.53;2.33;;;;;;;0.07;82.62;102634.78;5060940;28;20078;-75
2023/04/04 00:52:25;;;;;;;5.25;2.33;;;;;;;0.03;82.74;102644.22;5064122;28;20033;-76
2023/04/04 00:54:53;;;;;;;6.70;2.45;;;;;;;0.00;82.75;102629.03;5062963;28;20068;-75
2023/04/04 00:57:18;;;;;;;5.65;2.40;;;;;;;0.00;82.81;102644.34;5058139;28;20049;-75
2023/04/04 00:59:44;;;;;;;8.50;3.17;;;;;;;-0.02;83.15;102638.41;5051682;28;20037;-75
2023/04/04 01:02:10;;;;;;;7.63;2.28;;;;;;;-0.04;83.40;102643.59;5064164;28;20251;-75
2023/04/04 01:04:36;;;;;;;7.43;2.20;;;;;;;-0.08;83.80;102630.94;5070049;28;20422;-75
2023/04/04 01:07:01;;;;;;;5.82;2.00;;;;;;;-0.11;84.05;102638.69;5065419;28;20039;-76
2023/04/04 01:09:27;;;;;;;8.15;2.80;;;;;;;-0.14;83.98;102636.22;5048022;28;20027;-75
2023/04/04 01:11:56;;;;;;;10.38;3.03;;;;;;;-0.16;83.73;102635.41;5044673;28;20491;-75
2023/04/04 01:14:23;;;;;;;6.93;3.17;;;;;;;-0.20;83.90;102635.50;5052859;28;20518;-75
2023/04/04 01:16:50;;;;;;;7.60;2.38;;;;;;;-0.23;83.62;102633.03;5063753;28;20033;-75
2023/04/04 01:19:33;;;;;;;5.15;2.60;;;;;;;-0.24;83.99;102631.34;5061297;28;20112;-75
2023/04/04 01:22:04;;;;;;;6.25;2.22;;;;;;;-0.26;83.88;102635.66;5061050;28;20037;-76
2023/04/04 01:24:33;;;;;;;6.13;2.47;;;;;;;-0.28;83.54;102637.41;5063158;28;20435;-75
2023/04/04 01:27:01;;;;;;;11.20;3.25;;;;;;;-0.29;83.97;102637.47;5079576;28;20033;-74
2023/04/04 01:29:26;;;;;;;5.38;2.00;;;;;;;-0.30;84.19;102638.31;5048267;28;20045;-75
2023/04/04 01:32:10;;;;;;;6.20;2.15;;;;;;;-0.34;84.39;102634.19;5049521;28;20469;-75
2023/04/04 01:34:43;;;;;;;3.75;1.98;;;;;;;-0.38;84.56;102640.25;5064870;28;20482;-75
2023/04/04 01:37:29;;;;;;;6.97;2.40;;;;;;;-0.44;84.21;102639.53;5062821;28;20033;-75
2023/04/04 01:40:07;;;;;;;6.25;2.90;;;;;;;-0.47;84.89;102639.63;5049852;28;20623;-75
2023/04/04 01:42:35;;;;;;;5.22;2.38;;;;;;;-0.49;84.55;102631.19;5059431;28;20040;-76
2023/04/04 01:45:01;;;;;;;8.70;2.20;;;;;;;-0.53;84.69;102627.00;5046071;28;20033;-75
2023/04/04 01:47:39;;;;;;;6.50;2.53;;;;;;;-0.56;84.88;102631.38;5059944;28;20036;-74
2023/04/04 01:50:10;;;;;;;7.20;2.20;;;;;;;-0.60;85.21;102625.53;5063350;28;20410;-75
2023/04/04 01:52:37;;;;;;;3.28;1.75;;;;;;;-0.61;85.49;102624.66;5045506;28;20112;-74
2023/04/04 01:55:03;;;;;;;7.35;2.42;;;;;;;-0.61;85.19;102619.56;5062057;28;20082;-75
2023/04/04 01:57:30;;;;;;;8.18;3.08;;;;;;;-0.62;85.41;102628.09;5049364;28;20033;-75
2023/04/04 01:59:55;;;;;;;6.05;2.20;;;;;;;-0.65;85.52;102623.06;5065999;28;20036;-75
2023/04/04 02:02:21;;;;;;;4.57;2.15;;;;;;;-0.69;85.70;102626.56;5047063;28;20029;-74
2023/04/04 02:04:47;;;;;;;10.18;2.45;;;;;;;-0.72;85.53;102624.09;5063399;28;20024;-75
2023/04/04 02:07:13;;;;;;;6.28;2.60;;;;;;;-0.75;85.81;102621.66;5060855;28;20091;-75
2023/04/04 02:09:39;;;;;;;5.72;2.63;;;;;;;-0.76;85.69;102624.22;5049032;28;20063;-74
2023/04/04 02:12:07;;;;;;;5.22;2.15;;;;;;;-0.79;85.62;102622.59;5044491;28;20033;-75
2023/04/04 02:14:33;;;;;;;6.70;2.58;;;;;;;-0.82;85.76;102622.66;5048288;28;20090;-74
2023/04/04 02:16:59;;;;;;;6.70;2.30;;;;;;;-0.84;86.04;102619.31;5048379;28;20064;-75
2023/04/04 02:19:25;;;;;;;6.80;2.38;;;;;;;-0.85;85.94;102618.50;5052161;28;20027;-74
2023/04/04 02:21:50;;;;;;;6.40;3.33;;;;;;;-0.86;85.89;102621.06;5063805;28;20047;-74
2023/04/04 02:24:16;;;;;;;7.55;2.15;;;;;;;-0.88;86.20;102615.19;5060157;28;20074;-75
2023/04/04 02:26:41;;;;;;;8.88;2.58;;;;;;;-0.89;86.42;102611.78;5046248;28;20112;-75
2023/04/04 02:29:07;;;;;;;6.65;3.28;;;;;;;-0.90;86.20;102615.22;5049222;28;20033;-75
2023/04/04 02:31:33;;;;;;;6.88;2.53;;;;;;;-0.90;86.72;102612.66;5044885;28;20112;-75
2023/04/04 02:33:59;;;;;;;6.90;2.78;;;;;;;-0.94;86.60;102610.22;5043056;28;20040;-74
2023/04/04 02:36:25;;;;;;;4.10;2.28;;;;;;;-0.98;86.90;102612.00;5039684;28;20438;-75
2023/04/04 02:38:52;;;;;;;8.75;2.65;;;;;;;-1.00;86.90;102606.09;5049816;28;20033;-75
2023/04/04 02:41:20;;;;;;;5.40;2.22;;;;;;;-1.02;87.02;102600.22;5041671;28;20197;-75
2023/04/04 02:43:46;;;;;;;8.88;2.40;;;;;;;-1.06;87.31;102604.53;5060347;28;20111;-74
2023/04/04 02:46:11;;;;;;;5.78;2.40;;;;;;;-1.07;87.42;102605.44;5061261;28;20060;-75
2023/04/04 02:48:37;;;;;;;6.03;2.40;;;;;;;-1.09;87.29;102608.88;5056230;28;20032;-74
2023/04/04 02:51:02;;;;;;;8.57;2.40;;;;;;;-1.12;87.53;102609.78;5049722;28;20032;-75
2023/04/04 02:53:29;;;;;;;7.35;3.55;;;;;;;-1.16;87.78;102607.38;5046963;28;20082;-74
2023/04/04 02:56:04;;;;;;;6.68;2.72;;;;;;;-1.16;88.03;102608.19;5059405;28;20044;-75
2023/04/04 02:58:31;;;;;;;5.88;2.45;;;;;;;-1.20;87.90;102602.34;5061686;28;20618;-74
2023/04/04 03:00:56;;;;;;;7.10;2.60;;;;;;;-1.21;88.36;102597.28;5059510;28;20033;-74
2023/04/04 03:03:26;;;;;;;7.63;3.30;;;;;;;-1.24;88.37;102602.44;5060570;28;20052;-75
2023/04/04 03:05:52;;;;;;;7.72;2.97;;;;;;;-1.27;88.01;102599.97;5045405;28;20040;-75
2023/04/04 03:08:17;;;;;;;6.55;2.70;;;;;;;-1.29;88.33;102597.44;5062076;28;20020;-74
2023/04/04 03:10:44;;;;;;;5.88;2.83;;;;;;;-1.30;88.34;102605.13;5044267;28;20189;-75
2023/04/04 03:13:09;;;;;;;6.38;2.67;;;;;;;-1.32;88.33;102602.59;5056250;28;20499;-75
2023/04/04 03:15:35;;;;;;;4.57;2.63;;;;;;;-1.35;88.78;102602.69;5057917;28;20070;-74
2023/04/04 03:18:02;;;;;;;5.68;2.50;;;;;;;-1.37;88.82;102601.88;5062320;28;20095;-74
2023/04/04 03:20:30;;;;;;;9.43;3.40;;;;;;;-1.40;89.10;102602.78;5060177;28;20028;-75
2023/04/04 03:22:56;;;;;;;6.22;2.78;;;;;;;-1.42;89.12;102601.97;5046142;28;20028;-74
2023/04/04 03:25:22;;;;;;;5.90;2.50;;;;;;;-1.46;89.61;102605.47;5056356;28;20035;-74
2023/04/04 03:27:47;;;;;;;13.80;2.65;;;;;;;-1.47;89.73;102608.03;5058573;28;20020;-75
2023/04/04 03:30:19;;;;;;;8.80;2.70;;;;;;;-1.49;89.70;102608.06;5056106;28;20028;-75
2023/04/04 03:32:45;;;;;;;6.72;2.88;;;;;;;-1.50;89.97;102605.59;5057669;28;20593;-75
2023/04/04 03:35:10;;;;;;;6.15;2.60;;;;;;;-1.53;89.89;102611.56;5055432;28;20040;-75
2023/04/04 03:37:36;;;;;;;6.63;2.72;;;;;;;-1.53;89.70;102605.63;5059816;28;20746;-74
2023/04/04 03:40:02;;;;;;;7.53;2.47;;;;;;;-1.52;89.71;102607.31;5060565;28;20039;-75
2023/04/04 03:42:33;;;;;;;15.27;2.92;;;;;;;-1.54;89.81;102612.44;5042261;28;20036;-75
2023/04/04 03:44:59;;;;;;;8.43;3.08;;;;;;;-1.55;89.59;102609.94;5056828;28;20197;-75
2023/04/04 03:47:29;;;;;;;8.63;2.60;;;;;;;-1.59;89.66;102601.53;5045861;28;20441;-75
2023/04/04 03:49:57;;;;;;;9.85;2.92;;;;;;;-1.61;89.91;102598.16;5042993;28;20033;-74
2023/04/04 03:52:23;;;;;;;6.47;3.20;;;;;;;-1.64;89.83;102600.78;5058326;28;20037;-74
2023/04/04 03:54:48;;;;;;;8.13;3.47;;;;;;;-1.67;90.15;102593.22;5058118;28;20036;-74
2023/04/04 03:57:14;;;;;;;10.63;3.35;;;;;;;-1.68;90.14;102592.38;5057718;28;20040;-74
2023/04/04 03:59:41;;;;;;;11.82;3.67;;;;;;;-1.69;90.31;102587.34;5059043;28;20029;-74
2023/04/04 04:02:07;;;;;;;11.40;3.40;;;;;;;-1.72;90.48;102589.94;5064782;28;20140;-74
2023/04/04 04:04:33;;;;;;;8.65;3.28;;;;;;;-1.74;90.51;102592.50;5061675;28;20029;-74
2023/04/04 04:06:59;;;;;;;6.60;3.30;;;;;;;-1.76;90.71;102584.91;5045747;28;20063;-74
2023/04/04 04:09:25;;;;;;;4.45;2.72;;;;;;;-1.76;90.77;102589.16;5060903;28;20424;-75
2023/04/04 04:11:50;;;;;;;12.07;3.72;;;;;;;-1.78;90.70;102591.72;5053516;28;20094;-74
2023/04/04 04:14:16;;;;;;;9.57;2.88;;;;;;;-1.80;90.90;102593.47;5060443;28;20505;-74
2023/04/04 04:16:42;;;;;;;8.18;2.95;;;;;;;-1.82;90.84;102595.22;5064860;28;20028;-74
2023/04/04 04:19:11;;;;;;;9.68;3.65;;;;;;;-1.83;90.86;102596.09;5066013;28;20047;-74
2023/04/04 04:21:39;;;;;;;7.60;3.30;;;;;;;-1.84;90.73;102596.94;5048215;28;20403;-75
2023/04/04 04:24:05;;;;;;;4.50;2.58;;;;;;;-1.85;90.72;102596.97;5069166;28;20032;-73
2023/04/04 04:26:31;;;;;;;6.60;3.13;;;;;;;-1.88;90.79;102600.44;5045487;28;20128;-75
2023/04/04 04:28:56;;;;;;;6.75;3.03;;;;;;;-1.91;91.02;102600.47;5062193;28;20031;-72
2023/04/04 04:31:28;;;;;;;8.32;2.97;;;;;;;-1.93;91.14;102586.13;5059789;28;20041;-75
2023/04/04 04:33:55;;;;;;;8.57;3.38;;;;;;;-1.96;91.31;102580.25;5061868;28;20120;-73
2023/04/04 04:36:25;;;;;;;11.57;3.05;;;;;;;-1.95;91.34;102583.63;5058964;28;20440;-75
2023/04/04 04:39:08;;;;;;;6.35;3.03;;;;;;;-1.98;91.52;102586.22;5066047;28;20071;-73
2023/04/04 04:41:38;;;;;;;7.93;3.10;;;;;;;-1.99;91.33;102587.09;5059237;28;20024;-75
2023/04/04 04:44:04;;;;;;;11.05;2.95;;;;;;;-2.00;91.65;102590.50;5060335;28;20032;-75
2023/04/04 04:46:34;;;;;;;11.18;3.00;;;;;;;-2.03;91.70;102585.50;5059996;28;20512;-74
2023/04/04 04:49:02;;;;;;;8.75;3.88;;;;;;;-2.05;91.72;102579.59;5041803;28;20047;-72
2023/04/04 04:51:29;;;;;;;5.40;2.53;;;;;;;-2.08;91.95;102574.56;5057573;28;20048;-72
2023/04/04 04:53:57;;;;;;;12.55;3.58;;;;;;;-2.10;92.01;102579.69;5061069;28;20094;-75
2023/04/04 04:56:24;;;;;;;7.05;3.05;;;;;;;-2.12;92.11;102580.59;5060586;28;20503;-75
2023/04/04 04:58:52;;;;;;;10.18;3.20;;;;;;;-2.16;92.25;102582.34;5053247;28;20021;-73
2023/04/04 05:01:24;;;;;;;7.72;4.38;;;;;;;-2.18;92.04;102584.91;5060381;28;20120;-73
2023/04/04 05:03:50;;;;;;;8.85;3.42;;;;;;;-2.20;92.26;102576.50;5044535;28;20036;-75
2023/04/04 05:06:22;;;;;;;8.68;3.20;;;;;;;-2.21;92.28;102581.59;5044014;28;20528;-73
2023/04/04 05:08:49;;;;;;;7.75;4.13;;;;;;;-2.22;92.48;102588.41;5057647;28;20037;-73
2023/04/04 05:11:28;;;;;;;11.55;3.63;;;;;;;-2.22;92.70;102595.19;5060916;28;20111;-75
2023/04/04 05:13:54;;;;;;;10.68;3.15;;;;;;;-2.22;92.40;102585.84;5064560;28;22430;-75
2023/04/04 05:16:21;;;;;;;9.98;3.17;;;;;;;-2.21;92.47;102594.31;5058880;28;20071;-75
2023/04/04 05:18:48;;;;;;;7.25;3.20;;;;;;;-2.22;92.40;102596.03;5062214;28;20027;-75
2023/04/04 05:21:14;;;;;;;8.55;3.13;;;;;;;-2.23;92.27;102596.88;5058982;28;20044;-75
2023/04/04 05:23:39;;;;;;;10.73;3.58;;;;;;;-2.22;92.08;102602.81;5040732;28;20124;-72
2023/04/04 05:26:06;;;;;;;11.98;3.88;;;;;;;-2.24;92.31;102592.66;5041935;28;20128;-75
2023/04/04 05:28:36;;;;;;;4.80;3.15;;;;;;;-2.24;92.80;102587.59;5048041;28;20033;-75
2023/04/04 05:31:04;;;;;;;7.13;3.83;;;;;;;-2.24;92.88;102602.84;5059394;28;20043;-75
2023/04/04 05:33:31;;;;;;;7.32;3.75;;;;;;;-2.26;92.89;102601.19;5054657;28;20074;-72
2023/04/04 05:36:11;;;;;;;8.90;3.63;;;;;;;-2.26;93.04;102603.72;5069789;28;20663;-73
2023/04/04 05:38:43;;;;;;;10.77;3.92;;;;;;;-2.26;93.58;102608.78;5060483;28;20471;-73
2023/04/04 05:41:09;;;;;;;9.55;3.97;;;;;;;-2.26;93.55;102614.75;5061438;28;22214;-75
2023/04/04 05:43:35;;;;;;;10.95;3.97;;;;;;;-2.25;93.42;102620.66;5065580;28;20032;-75
2023/04/04 05:46:07;;;;;;;10.52;3.95;;;;;;;-2.24;93.71;102627.41;5047423;28;20066;-75
2023/04/04 05:48:39;;;;;;;12.27;3.58;;;;;;;-2.21;93.78;102624.81;5049787;28;20039;-75
2023/04/04 05:51:04;;;;;;;11.32;4.13;;;;;;;-2.19;94.01;102634.06;5067762;28;20036;-75
2023/04/04 05:53:41;;;;;;;8.50;3.65;;;;;;;-2.16;94.42;102636.56;5065951;28;20241;-75
2023/04/04 05:56:06;;;;;;;8.60;3.67;;;;;;;-2.12;94.54;102633.97;5063179;28;20449;-75
2023/04/04 05:58:33;;;;;;;15.88;4.22;;;;;;;-2.08;95.28;102633.88;5043264;28;20499;-75
2023/04/04 06:01:00;;;;;;;9.98;4.47;;;;;;;-2.04;95.07;102627.84;5059448;28;20032;-75
2023/04/04 06:03:27;;;;;;;9.93;4.28;;;;;;;-2.00;95.31;102626.09;5063243;28;20038;-75
2023/04/04 06:05:54;;;;;;;9.88;4.15;;;;;;;-1.98;95.56;102632.00;5063377;22;20036;-77
2023/04/04 06:08:21;;;;;;;9.80;4.20;;;;;;;-1.94;96.05;102633.63;5043066;28;20029;-76
2023/04/04 06:10:46;;;;;;;7.10;3.60;;;;;;;-1.92;95.56;102638.66;5045878;28;20409;-78
2023/04/04 06:13:12;;;;;;;8.68;4.00;;;;;;;-1.92;95.61;102636.97;5041080;28;20447;-79
2023/04/04 06:15:39;;;;;;;11.85;4.00;;;;;;;-1.88;95.62;102648.75;5022032;28;20037;-79
2023/04/04 06:18:05;;;;;;;12.27;4.47;;;;;;;-1.84;96.12;102645.28;5026052;28;20033;-77
2023/04/04 06:20:30;;;;;;;9.00;3.83;;;;;;;-1.79;96.28;102638.41;5023220;28;20037;-79
2023/04/04 06:22:56;;;;;;;12.38;4.78;;;;;;;-1.73;96.04;102641.66;5027031;28;20063;-80
2023/04/04 06:25:22;;;;;;;12.30;4.60;;;;;;;-1.66;96.04;102640.69;5022611;28;20032;-78
2023/04/04 06:27:47;;;;;;;8.95;4.70;;;;;;;-1.59;96.23;102648.16;5040067;28;20029;-77
2023/04/04 06:30:15;;;;;;;20.92;6.70;;;;;;;-1.40;95.29;102646.03;5025651;28;20035;-79
2023/04/04 06:32:42;;;;;;;9.77;4.97;;;;;;;-1.25;93.40;102642.31;5041727;28;20079;-77
2023/04/04 06:35:11;;;;;;;10.70;4.40;;;;;;;-1.04;91.87;102646.09;5028021;28;20581;-77
2023/04/04 06:37:42;;;;;;;43.28;16.20;;;;;;;-0.82;90.04;102651.50;5040455;28;20025;-77
2023/04/04 06:40:12;;;;;;;47.65;15.73;;;;;;;-0.65;89.01;102658.75;5023713;28;20029;-78
2023/04/04 06:42:48;;;;;;;18.48;5.32;;;;;;;-0.40;87.20;102658.13;5033188;28;20033;-77
2023/04/04 06:45:15;;;;;;;13.20;5.22;;;;;;;-0.20;86.16;102661.00;5028193;28;20414;-76
2023/04/04 06:47:40;;;;;;;11.20;4.60;;;;;;;0.08;85.05;102670.47;5023529;28;20419;-78
2023/04/04 06:50:06;;;;;;;10.35;5.00;;;;;;;0.38;85.28;102668.75;5037705;28;20036;-78
2023/04/04 06:52:32;;;;;;;14.50;4.88;;;;;;;0.76;82.66;102664.22;5034668;28;20041;-76
2023/04/04 06:54:57;;;;;;;15.10;6.40;;;;;;;1.54;84.01;102667.72;5034953;28;20036;-76
2023/04/04 06:57:23;;;;;;;17.13;4.78;;;;;;;2.24;78.89;102668.69;5032826;28;20040;-79
2023/04/04 06:59:48;;;;;;;9.65;4.50;;;;;;;3.19;74.79;102664.19;5016035;28;20091;-79
2023/04/04 07:02:14;;;;;;;11.98;4.50;;;;;;;4.10;69.54;102661.97;5024326;28;20033;-78
2023/04/04 07:04:40;;;;;;;10.88;4.15;;;;;;;4.86;64.02;102649.09;5007627;28;20430;-76
2023/04/04 07:07:06;;;;;;;10.48;4.40;;;;;;;5.46;59.88;102658.16;5027077;28;20033;-77
2023/04/04 07:09:31;;;;;;;12.48;3.40;;;;;;;6.11;60.52;102652.31;5031587;28;20086;-78
2023/04/04 07:11:57;;;;;;;11.75;3.40;;;;;;;6.70;55.22;102648.19;5034135;28;20047;-79
2023/04/04 07:14:24;;;;;;;10.30;3.50;;;;;;;7.05;52.62;102649.72;5010940;28;20030;-77
2023/04/04 07:16:50;;;;;;;10.23;3.85;;;;;;;7.39;53.55;102639.09;5012886;28;20041;-79
2023/04/04 07:19:16;;;;;;;15.45;3.97;;;;;;;8.05;50.10;102636.88;5031254;28;20029;-79
2023/04/04 07:21:42;;;;;;;7.93;3.33;;;;;;;8.29;50.71;102642.28;5025487;28;21460;-79
2023/04/04 07:24:08;;;;;;;11.05;3.05;;;;;;;8.73;48.74;102643.81;5008995;28;20028;-77
2023/04/04 07:26:34;;;;;;;10.43;3.38;;;;;;;8.82;46.66;102637.25;5013056;28;20028;-77
2023/04/04 07:28:59;;;;;;;10.95;3.63;;;;;;;8.96;47.88;102634.56;5010954;28;20082;-78
2023/04/04 07:31:26;;;;;;;7.68;3.05;;;;;;;8.81;47.29;102637.34;5009980;28;20598;-76
2023/04/04 07:33:52;;;;;;;13.30;3.08;;;;;;;8.89;45.94;102637.66;5023031;28;20039;-79
2023/04/04 07:36:18;;;;;;;9.05;2.67;;;;;;;9.06;45.21;102627.03;5013897;28;20042;-75
2023/04/04 07:38:44;;;;;;;6.50;2.30;;;;;;;8.98;45.56;102631.88;5024718;28;20080;-77
2023/04/04 07:41:10;;;;;;;8.02;2.85;;;;;;;9.71;43.83;102625.28;5045266;28;20086;-78
2023/04/04 07:43:36;;;;;;;9.50;3.13;;;;;;;9.73;43.62;102615.63;5024807;28;20486;-78
2023/04/04 07:46:02;;;;;;;5.78;2.60;;;;;;;9.57;42.33;102613.28;5042759;28;20394;-77
2023/04/04 07:48:27;;;;;;;11.52;2.58;;;;;;;9.94;41.89;102611.56;5019783;28;20024;-77
2023/04/04 07:50:53;;;;;;;10.52;2.72;;;;;;;10.11;40.72;102609.53;5023906;28;20033;-78
2023/04/04 07:53:18;;;;;;;9.05;1.98;;;;;;;9.22;38.30;102618.25;5029883;28;20033;-79
2023/04/04 07:55:44;;;;;;;6.18;1.70;;;;;;;8.81;40.87;102608.88;4999957;28;20033;-77
2023/04/04 07:58:09;;;;;;;7.35;1.48;;;;;;;9.60;41.06;102605.28;5042439;28;20662;-76
2023/04/04 08:00:35;;;;;;;4.85;1.70;;;;;;;9.98;39.91;102595.78;5027794;28;20040;-78
2023/04/04 08:03:01;;;;;;;5.30;1.40;;;;;;;9.62;37.88;102608.59;5033406;28;20029;-79
2023/04/04 08:05:27;;;;;;;6.82;1.90;;;;;;;9.72;39.95;102612.22;5047725;28;20036;-79
2023/04/04 08:07:52;;;;;;;4.65;1.90;;;;;;;9.83;39.64;102611.50;5050704;28;20036;-77
2023/04/04 08:10:20;;;;;;;4.10;2.20;;;;;;;9.79;40.23;102616.97;5030661;28;20048;-79
2023/04/04 08:12:45;;;;;;;4.70;2.00;;;;;;;10.05;40.13;102613.38;5051992;28;21375;-77
2023/04/04 08:15:11;;;;;;;6.30;2.15;;;;;;;10.54;40.98;102618.63;5032701;28;20040;-78
2023/04/04 08:17:37;;;;;;;7.47;2.00;;;;;;;10.58;38.42;102613.09;5048136;28;20045;-77
2023/04/04 08:20:03;;;;;;;6.30;2.00;;;;;;;10.61;38.56;102614.66;5030598;28;20040;-79
2023/04/04 08:22:29;;;;;;;5.40;1.70;;;;;;;10.96;38.88;102613.81;5046423;28;20037;-78
2023/04/04 08:24:55;;;;;;;5.55;1.80;;;;;;;10.56;38.16;102607.19;5038461;28;20059;-79
2023/04/04 08:27:21;;;;;;;4.47;1.90;;;;;;;11.01;38.23;102609.91;5021798;28;20037;-78
2023/04/04 08:29:47;;;;;;;3.90;1.73;;;;;;;10.94;36.67;102603.53;5052995;28;20033;-79
2023/04/04 08:32:13;;;;;;;3.55;1.73;;;;;;;10.90;37.90;102609.91;5050779;28;20044;-76
2023/04/04 08:34:40;;;;;;;4.20;1.58;;;;;;;11.23;37.27;102622.13;5024065;28;20068;-75
2023/04/04 08:37:06;;;;;;;5.10;2.20;;;;;;;10.37;36.76;102618.06;5038906;28;20065;-78
2023/04/04 08:39:31;;;;;;;8.63;1.73;;;;;;;9.31;38.59;102622.81;5023043;28;20059;-77
2023/04/04 08:42:04;;;;;;;5.65;1.88;;;;;;;9.86;38.64;102618.22;5029806;28;20499;-78
2023/04/04 08:44:30;;;;;;;;;;;;;;;9.48;39.43;102624.25;5018418;28;20028;-78
2023/04/04 08:46:58;;;;;;;3.30;1.40;;;;;;;9.23;38.47;102612.13;5045040;28;20371;-78
2023/04/04 08:49:26;;;;;;;7.10;1.80;;;;;;;8.86;39.88;102614.59;5049739;28;20029;-76
2023/04/04 08:51:55;;;;;;;5.00;2.58;;;;;;;8.95;41.67;102614.81;5029225;28;20060;-77
2023/04/04 08:54:21;;;;;;;5.45;1.63;;;;;;;9.53;40.32;102617.84;5047219;28;20567;-78
2023/04/04 08:56:47;;;;;;;4.00;1.80;;;;;;;10.07;39.15;102608.09;5023824;28;20037;-78
2023/04/04 08:59:14;;;;;;;9.75;2.13;;;;;;;10.23;38.21;102616.44;5010535;28;20119;-76
2023/04/04 09:01:40;;;;;;;4.35;1.70;;;;;;;10.54;38.84;102614.25;5023238;28;20048;-78
2023/04/04 09:04:07;;;;;;;5.28;1.55;;;;;;;10.81;38.06;102608.84;5025845;28;20117;-75
2023/04/04 09:06:33;;;;;;;4.18;1.90;;;;;;;10.64;38.14;102607.47;5045270;28;20037;-76
2023/04/04 09:09:00;;;;;;;8.82;1.80;;;;;;;10.11;38.80;102617.31;5046256;28;20117;-79
2023/04/04 09:11:29;;;;;;;8.77;2.15;;;;;;;10.06;38.39;102603.84;5028830;28;20040;-78
2023/04/04 09:13:56;;;;;;;5.80;1.50;;;;;;;9.99;37.79;102600.84;5030947;28;20124;-76
2023/04/04 09:16:22;;;;;;;3.83;1.58;;;;;;;10.42;38.49;102607.38;5016262;28;20093;-79
2023/04/04 09:18:47;;;;;;;2.22;1.20;;;;;;;10.01;37.99;102600.75;5047209;28;20051;-77
2023/04/04 09:21:13;;;;;;;7.82;1.90;;;;;;;9.96;39.06;102602.84;5032419;28;20040;-75
2023/04/04 09:23:39;;;;;;;5.70;2.15;;;;;;;10.19;37.92;102598.59;5032077;28;20045;-76
2023/04/04 09:26:05;;;;;;;5.93;1.98;;;;;;;10.16;39.30;102601.44;5043329;28;20048;-75
2023/04/04 09:28:32;;;;;;;6.78;1.90;;;;;;;10.39;39.66;102605.81;5031761;28;20096;-77
2023/04/04 09:31:01;;;;;;;7.15;1.95;;;;;;;10.64;40.26;102606.63;5026507;28;20542;-77
2023/04/04 09:33:27;;;;;;;14.88;7.10;;;;;;;10.63;38.79;102595.44;5015029;28;20036;-77
2023/04/04 09:36:08;;;;;;;8.35;1.95;;;;;;;10.46;39.46;102598.44;5034927;28;20044;-77
2023/04/04 09:38:36;;;;;;;5.22;1.67;;;;;;;10.19;40.06;102596.00;5045130;28;20055;-74
2023/04/04 09:41:05;;;;;;;5.45;2.60;;;;;;;10.41;39.16;102590.16;5026291;28;20073;-76
2023/04/04 09:43:31;;;;;;;4.93;2.13;;;;;;;10.11;39.60;102584.44;5044595;28;20040;-78
2023/04/04 09:45:58;;;;;;;5.00;2.13;;;;;;;10.14;39.60;102584.22;5012468;28;20043;-77
2023/04/04 09:48:31;;;;;;;6.43;1.98;;;;;;;9.72;39.67;102588.09;5013042;28;20067;-78
2023/04/04 09:51:00;;;;;;;6.40;2.15;;;;;;;9.70;39.80;102579.56;5030250;28;20045;-78
2023/04/04 09:53:26;;;;;;;3.35;1.80;;;;;;;9.89;39.86;102582.53;5033137;28;20457;-77
2023/04/04 09:55:53;;;;;;;5.25;1.85;;;;;;;10.18;39.34;102579.66;5013378;28;20678;-79
2023/04/04 09:58:27;;;;;;;6.45;1.50;;;;;;;10.22;39.62;102580.25;5017875;28;20044;-77
2023/04/04 10:00:55;;;;;;;5.55;2.15;;;;;;;10.01;39.49;102585.22;5033207;28;20418;-79
2023/04/04 10:03:22;;;;;;;5.30;2.35;;;;;;;9.80;38.36;102583.19;5026858;28;20025;-77
2023/04/04 10:05:55;;;;;;;4.55;1.52;;;;;;;9.92;39.98;102581.50;5028060;28;20045;-77
2023/04/04 10:08:21;;;;;;;4.22;1.88;;;;;;;9.81;39.26;102573.66;5020068;28;20024;-76
2023/04/04 10:10:51;;;;;;;7.78;1.95;;;;;;;9.29;40.33;102588.44;5016214;28;20052;-77
2023/04/04 10:13:28;;;;;;;6.55;2.17;;;;;;;9.30;40.74;102585.72;5035054;28;20037;-77
2023/04/04 10:15:55;;;;;;;9.27;2.10;;;;;;;9.49;40.89;102576.72;5048180;28;20071;-77
2023/04/04 10:18:28;;;;;;;6.10;1.70;;;;;;;9.70;40.94;102575.25;5010370;28;20025;-77
2023/04/04 10:20:56;;;;;;;4.55;2.08;;;;;;;9.92;42.25;102577.13;5047308;28;20044;-78
2023/04/04 10:23:24;;;;;;;5.90;2.55;;;;;;;9.90;40.53;102578.19;5027788;28;20032;-77
2023/04/04 10:25:50;;;;;;;6.72;2.08;;;;;;;9.60;40.61;102573.38;5023861;28;20500;-78
2023/04/04 10:28:17;;;;;;;5.88;1.90;;;;;;;9.30;41.04;102580.53;5030532;28;20041;-78
2023/04/04 10:30:49;;;;;;;20.33;6.45;;;;;;;9.15;41.00;102569.50;5042667;28;20127;-78
2023/04/04 10:33:43;;;;;;;7.50;2.05;;;;;;;9.40;41.56;102573.00;5045709;28;20033;-76
2023/04/04 10:36:11;;;;;;;6.13;1.95;;;;;;;9.28;39.68;102563.47;5026657;28;20109;-77
2023/04/04 10:38:47;;;;;;;6.88;2.60;;;;;;;8.87;41.05;102560.16;4993386;28;20087;-78
2023/04/04 10:41:13;;;;;;;6.13;1.83;;;;;;;8.73;39.34;102568.81;5027353;28;20045;-77
2023/04/04 10:43:44;;;;;;;5.80;2.20;;;;;;;9.04;40.39;102556.44;5024490;28;20248;-76
2023/04/04 10:46:16;;;;;;;3.88;1.58;;;;;;;9.26;41.51;102560.97;5022446;28;20039;-77
2023/04/04 10:48:43;;;;;;;6.53;1.55;;;;;;;9.32;39.18;102554.56;5023853;28;20029;-75
2023/04/04 10:51:10;;;;;;;5.05;2.33;;;;;;;9.49;40.44;102551.66;5020398;28;20129;-78
2023/04/04 10:53:37;;;;;;;6.45;1.88;;;;;;;9.40;38.40;102546.25;5029970;28;20033;-75
2023/04/04 10:56:03;;;;;;;4.45;1.70;;;;;;;9.32;40.91;102549.38;5020349;28;20132;-77
2023/04/04 10:58:28;;;;;;;7.50;2.17;;;;;;;9.29;39.73;102544.44;5019783;28;20033;-75
2023/04/04 11:00:55;;;;;;;4.45;1.90;;;;;;;9.36;39.80;102535.28;5020173;28;20092;-76
2023/04/04 11:03:21;;;;;;;6.82;2.25;;;;;;;9.65;38.13;102528.09;5004877;28;20120;-77
2023/04/04 11:05:47;;;;;;;5.55;1.88;;;;;;;9.44;38.86;102532.19;5019586;28;20113;-77
2023/04/04 11:08:21;;;;;;;8.95;2.03;;;;;;;8.99;38.00;102524.06;5001252;28;20033;-78
2023/04/04 11:10:49;;;;;;;7.35;1.90;;;;;;;9.63;38.71;102519.59;5011583;28;20037;-77
2023/04/04 11:13:34;;;;;;;3.67;2.08;;;;;;;9.88;38.67;102523.88;5020405;28;20040;-78
2023/04/04 11:16:00;;;;;;;4.97;2.20;;;;;;;9.60;36.96;102513.81;5012414;28;20132;-78
2023/04/04 11:18:38;;;;;;;4.43;2.38;;;;;;;9.68;37.07;102514.09;4999733;28;20625;-78
2023/04/04 11:21:23;;;;;;;5.35;2.40;;;;;;;9.38;39.03;102517.06;5023484;28;20075;-78
2023/04/04 11:23:48;;;;;;;7.93;2.90;;;;;;;9.11;39.74;102521.44;5036250;28;20042;-74
2023/04/04 11:26:26;;;;;;;9.88;2.47;;;;;;;9.16;39.11;102526.31;5025123;28;20107;-77
2023/04/04 11:28:55;;;;;;;7.03;2.22;;;;;;;9.05;38.92;102513.28;5024695;28;20041;-76